30.0°F
Current conditions from King Hill
Updated every 5 minutes
 
  Friday September 19, 2014

Station Historical Data
Daily Summary for February 1, 2011 Units:  Metric    English   Both
« Previous Day
Next Day »
Daily Weekly Monthly Yearly Custom
  High: Low: Average:
Temperature: -9.7 °C -17.1 °C -13.1 °C
Dew Point: -12.6 °C -21.7 °C -17.1 °C
Humidity: 84% 56% 72%
Wind Speed: 3.2km/h 0km/h 1.8km/h
Wind Gust: 8km/h - -
Wind- - NE
Pressure: 1032.7 hPa 1026.3 hPa -
Precipitation: 0 mm    
Historical Graphs
 
 
Tabular Data for February 1, 2011
Time Temperature Dew Point Pressure Wind Wind Speed Wind Gust Humidity Daily Rainfall
00:00 -16.7 °C -21.6 °C 1032.7 hPa Calm     66% 0 mm
00:05 -16.8 °C -21.6 °C 1032.4 hPa Calm     66% 0 mm
00:10 -16.8 °C -21.7 °C 1032.4 hPa Calm     66% 0 mm
00:15 -16.9 °C -21.6 °C 1032.4 hPa Calm     67% 0 mm
00:20 -16.9 °C -21.4 °C 1032.4 hPa Calm     68% 0 mm
00:25 -16.9 °C -21.4 °C 1032.4 hPa Calm     68% 0 mm
00:30 -16.9 °C -21.4 °C 1032.4 hPa Calm     68% 0 mm
00:35 -16.8 °C -21.3 °C 1032.4 hPa Calm     68% 0 mm
00:40 -16.8 °C -21.3 °C 1032.1 hPa Calm     68% 0 mm
00:45 -16.8 °C -21.1 °C 1032.1 hPa Calm     69% 0 mm
00:50 -16.8 °C -21.1 °C 1032.1 hPa Calm     69% 0 mm
00:55 -16.8 °C -21.2 °C 1032.1 hPa Calm     69% 0 mm
01:00 -16.9 °C -21.3 °C 1032.1 hPa Calm     69% 0 mm
01:05 -17 °C -21.2 °C 1032.1 hPa Calm     70% 0 mm
01:10 -17.1 °C -21.2 °C 1032.1 hPa Calm     70% 0 mm
01:15 -17 °C -21.2 °C 1032.1 hPa Calm     70% 0 mm
01:20 -17 °C -21.2 °C 1032.1 hPa Calm     70% 0 mm
01:25 -16.9 °C -20.9 °C 1032.1 hPa Calm     71% 0 mm
01:30 -16.8 °C -21 °C 1032.1 hPa Calm     70% 0 mm
01:35 -16.8 °C -20.9 °C 1032.1 hPa Calm     70% 0 mm
01:40 -16.7 °C -21.1 °C 1032.1 hPa Calm     69% 0 mm
01:45 -16.7 °C -21.1 °C 1031.7 hPa Calm     69% 0 mm
01:50 -16.7 °C -21.1 °C 1031.7 hPa Calm     69% 0 mm
01:55 -16.7 °C -21.4 °C 1031.7 hPa Calm     67% 0 mm
02:00 -16.7 °C -21.4 °C 1031.7 hPa Calm     67% 0 mm
02:05 -16.7 °C -21.2 °C 1031.7 hPa Calm     68% 0 mm
02:10 -16.7 °C -21.2 °C 1031.7 hPa Calm     68% 0 mm
02:15 -16.7 °C -21.2 °C 1031.7 hPa Calm     68% 0 mm
02:20 -16.7 °C -21.2 °C 1031.7 hPa Calm     68% 0 mm
02:25 -16.6 °C -21.1 °C 1031.7 hPa Calm     68% 0 mm
02:30 -16.6 °C -21.1 °C 1031.7 hPa Calm     68% 0 mm
02:35 -16.5 °C -21.2 °C 1031.7 hPa Calm     67% 0 mm
02:45 -16.3 °C -21 °C 1031.7 hPa Calm     67% 0 mm
02:50 -16.2 °C -21.1 °C 1031.4 hPa Calm     66% 0 mm
02:55 -16.2 °C -21.1 °C 1031.4 hPa Calm     66% 0 mm
03:00 -16.1 °C -21.5 °C 1031.4 hPa Calm     63% 0 mm
03:05 -16 °C -21.2 °C 1031.7 hPa Calm     64% 0 mm
03:10 -15.9 °C -21.4 °C 1031.7 hPa Calm     63% 0 mm
03:15 -15.9 °C -21.2 °C 1031.4 hPa Calm     64% 0 mm
03:20 -15.9 °C -21.4 °C 1031.4 hPa Calm     63% 0 mm
03:25 -15.9 °C -21.4 °C 1031.4 hPa Calm     63% 0 mm
03:30 -15.9 °C -21.6 °C 1031.4 hPa Calm     62% 0 mm
03:35 -15.9 °C -21.4 °C 1031 hPa Calm     63% 0 mm
03:40 -16 °C -21.4 °C 1031 hPa Calm     63% 0 mm
03:45 -16.1 °C -21.7 °C 1031 hPa Calm     62% 0 mm
03:50 -16.1 °C -21.7 °C 1031 hPa Calm     62% 0 mm
03:55 -16 °C -21.6 °C 1031 hPa Calm     62% 0 mm
04:00 -15.9 °C -21.4 °C 1031 hPa Calm     63% 0 mm
04:05 -15.9 °C -21.3 °C 1030.7 hPa Calm     63% 0 mm
04:10 -15.8 °C -21.1 °C 1030.7 hPa Calm   3.2 km/h 64% 0 mm
04:15 -15.7 °C -21.1 °C 1031 hPa Calm   3.2 km/h 63% 0 mm
04:20 -15.6 °C -21.4 °C 1030.7 hPa Calm   3.2 km/h 61% 0 mm
04:25 -15.5 °C -21.1 °C 1030.7 hPa NE 1.6 km/h 3.2 km/h 62% 0 mm
04:30 -15.4 °C -21.3 °C 1030.7 hPa NE 1.6 km/h 4.8 km/h 61% 0 mm
04:35 -15.4 °C -20.6 °C 1030.7 hPa Calm   4.8 km/h 65% 0 mm
04:40 -15.5 °C -20.6 °C 1030.7 hPa Calm     65% 0 mm
04:45 -15.5 °C -20.6 °C 1030.7 hPa Calm   1.6 km/h 65% 0 mm
04:50 -15.6 °C -20.7 °C 1030.7 hPa Calm   3.2 km/h 65% 0 mm
04:55 -15.6 °C -20.8 °C 1030.7 hPa Calm   3.2 km/h 64% 0 mm
05:05 -15.5 °C -21.3 °C 1030.7 hPa Calm   4.8 km/h 61% 0 mm
05:10 -15.5 °C -21.5 °C 1031 hPa Calm   4.8 km/h 60% 0 mm
05:15 -15.4 °C -21.3 °C 1031 hPa Calm   3.2 km/h 61% 0 mm
05:20 -15.4 °C -21.2 °C 1031.4 hPa Calm   3.2 km/h 61% 0 mm
05:25 -15.3 °C -21 °C 1031.4 hPa Calm   1.6 km/h 62% 0 mm
05:30 -15.3 °C -20.9 °C 1031.4 hPa Calm   1.6 km/h 62% 0 mm
05:35 -15.3 °C -20.7 °C 1031 hPa Calm   1.6 km/h 63% 0 mm
05:40 -15.3 °C -20.7 °C 1031.4 hPa Calm     63% 0 mm
05:45 -15.3 °C -20.6 °C 1031.4 hPa Calm     64% 0 mm
05:50 -15.2 °C -20.5 °C 1031.4 hPa Calm   1.6 km/h 64% 0 mm
05:55 -15.2 °C -20.9 °C 1031.4 hPa Calm   3.2 km/h 62% 0 mm
06:00 -15.2 °C -20.6 °C 1031.4 hPa Calm   3.2 km/h 63% 0 mm
06:05 -15.1 °C -20.9 °C 1031.4 hPa Calm   3.2 km/h 61% 0 mm
06:10 -15 °C -20.8 °C 1031.4 hPa Calm   3.2 km/h 61% 0 mm
06:15 -14.9 °C -21 °C 1031.4 hPa Calm   3.2 km/h 60% 0 mm
06:20 -14.8 °C -20.7 °C 1031.4 hPa Calm   1.6 km/h 61% 0 mm
06:25 -14.8 °C -20.4 °C 1031.4 hPa Calm     62% 0 mm
06:30 -14.8 °C -20.3 °C 1031.4 hPa Calm     63% 0 mm
06:35 -14.7 °C -20.4 °C 1031.4 hPa Calm     62% 0 mm
06:40 -14.7 °C -19.9 °C 1031.4 hPa Calm     64% 0 mm
06:45 -14.7 °C -19.9 °C 1031.4 hPa Calm     64% 0 mm
06:50 -14.7 °C -20.2 °C 1031.4 hPa Calm     63% 0 mm
06:55 -14.7 °C -20 °C 1031.4 hPa Calm     64% 0 mm
07:00 -14.7 °C -19.9 °C 1031.4 hPa Calm   1.6 km/h 64% 0 mm
07:05 -14.7 °C -20.2 °C 1031 hPa Calm   1.6 km/h 63% 0 mm
07:10 -14.6 °C -20.1 °C 1031 hPa Calm   1.6 km/h 63% 0 mm
07:15 -14.6 °C -20.4 °C 1031 hPa Calm   4.8 km/h 61% 0 mm
07:20 -14.4 °C -20.5 °C 1031 hPa Calm   4.8 km/h 60% 0 mm
07:25 -14.3 °C -20.4 °C 1031 hPa Calm   3.2 km/h 60% 0 mm
07:30 -14.3 °C -20.6 °C 1031 hPa NE 1.6 km/h 6.4 km/h 59% 0 mm
07:35 -14.3 °C -20.7 °C 1030.7 hPa NE 1.6 km/h 6.4 km/h 58% 0 mm
07:40 -14.3 °C -20.7 °C 1030.7 hPa Calm   4.8 km/h 58% 0 mm
07:45 -14.3 °C -20.7 °C 1030.7 hPa Calm   6.4 km/h 58% 0 mm
07:50 -14.3 °C -20.7 °C 1030.7 hPa ENE 1.6 km/h 6.4 km/h 58% 0 mm
07:55 -14.2 °C -20.7 °C 1030.7 hPa Calm   4.8 km/h 58% 0 mm
08:05 -14.2 °C -20.7 °C 1030.7 hPa Calm   4.8 km/h 58% 0 mm
08:10 -14.2 °C -20.6 °C 1030.4 hPa Calm     58% 0 mm
08:15 -14.1 °C -20.6 °C 1030.7 hPa Calm   1.6 km/h 58% 0 mm
08:20 -14.1 °C -20.6 °C 1030.7 hPa Calm   3.2 km/h 58% 0 mm
08:25 -13.9 °C -20.4 °C 1030.7 hPa Calm   3.2 km/h 58% 0 mm
08:30 -13.9 °C -20.4 °C 1030.7 hPa Calm   3.2 km/h 58% 0 mm
08:40 -13.7 °C -20.2 °C 1030.7 hPa ENE 1.6 km/h 3.2 km/h 58% 0 mm
08:45 -13.6 °C -20.3 °C 1030.7 hPa NE 1.6 km/h 4.8 km/h 57% 0 mm
08:50 -13.5 °C -20.2 °C 1030.7 hPa Calm   4.8 km/h 57% 0 mm
08:55 -13.4 °C -20.4 °C 1030.7 hPa Calm   1.6 km/h 56% 0 mm
09:00 -13.4 °C -20.2 °C 1030.4 hPa Calm   3.2 km/h 57% 0 mm
09:05 -13.4 °C -20.1 °C 1030.4 hPa Calm   3.2 km/h 57% 0 mm
09:10 -13.4 °C -20.1 °C 1030.4 hPa Calm   1.6 km/h 57% 0 mm
09:15 -13.3 °C -20 °C 1030.4 hPa NE 1.6 km/h 3.2 km/h 57% 0 mm
09:20 -13.2 °C -19.9 °C 1030.4 hPa Calm   3.2 km/h 57% 0 mm
09:25 -13.1 °C -19.8 °C 1030.4 hPa Calm   1.6 km/h 57% 0 mm
09:30 -13.1 °C -19.8 °C 1030.4 hPa Calm   1.6 km/h 57% 0 mm
09:35 -12.9 °C -19.9 °C 1030.4 hPa Calm   1.6 km/h 56% 0 mm
09:40 -12.9 °C -19.6 °C 1030.4 hPa Calm   1.6 km/h 57% 0 mm
09:45 -12.8 °C -19.3 °C 1030.4 hPa Calm   1.6 km/h 58% 0 mm
09:50 -12.7 °C -19.5 °C 1030.4 hPa Calm     57% 0 mm
09:55 -12.8 °C -19.6 °C 1030.4 hPa Calm     57% 0 mm
10:00 -12.7 °C -19.5 °C 1030.4 hPa Calm     57% 0 mm
10:05 -12.7 °C -19.4 °C 1030.4 hPa Calm     57% 0 mm
10:10 -12.4 °C -19.2 °C 1030.4 hPa Calm     57% 0 mm
10:15 -12.3 °C -19.1 °C 1030.4 hPa Calm     57% 0 mm
10:20 -12.3 °C -18.3 °C 1030.4 hPa SSW 1.6 km/h 4.8 km/h 61% 0 mm
10:25 -12.5 °C -17.7 °C 1030.4 hPa SW 3.2 km/h 6.4 km/h 65% 0 mm
10:30 -12.6 °C -17.4 °C 1030 hPa Calm   6.4 km/h 67% 0 mm
10:35 -12.5 °C -17.2 °C 1030.4 hPa Calm   4.8 km/h 68% 0 mm
10:40 -12.4 °C -16.9 °C 1030.4 hPa Calm   4.8 km/h 69% 0 mm
10:45 -12.3 °C -16.7 °C 1030.4 hPa Calm   4.8 km/h 70% 0 mm
10:50 -12.3 °C -16.4 °C 1030.4 hPa Calm   3.2 km/h 71% 0 mm
10:55 -12.2 °C -16.2 °C 1030.4 hPa Calm   3.2 km/h 72% 0 mm
11:05 -11.8 °C -16.2 °C 1030 hPa Calm   3.2 km/h 70% 0 mm
11:10 -11.8 °C -16.2 °C 1030 hPa NE 1.6 km/h 3.2 km/h 70% 0 mm
11:15 -11.9 °C -16.1 °C 1029.7 hPa NE 1.6 km/h 3.2 km/h 71% 0 mm
11:20 -12 °C -16.2 °C 1029.7 hPa Calm   4.8 km/h 71% 0 mm
11:25 -12.2 °C -16.2 °C 1029.7 hPa NE 1.6 km/h 6.4 km/h 72% 0 mm
11:30 -12.3 °C -16.1 °C 1029.3 hPa ENE 1.6 km/h 6.4 km/h 73% 0 mm
11:35 -12.3 °C -15.9 °C 1029.3 hPa ENE 1.6 km/h 6.4 km/h 74% 0 mm
11:40 -12.2 °C -15.9 °C 1029.3 hPa ENE 1.6 km/h 6.4 km/h 74% 0 mm
11:45 -12.2 °C -15.7 °C 1029.3 hPa ENE 1.6 km/h 4.8 km/h 75% 0 mm
11:50 -12 °C -15.6 °C 1029.3 hPa Calm   3.2 km/h 75% 0 mm
11:55 -11.8 °C -15.2 °C 1029.3 hPa Calm   3.2 km/h 76% 0 mm
12:00 -11.7 °C -15.1 °C 1029.3 hPa NE 1.6 km/h 3.2 km/h 76% 0 mm
12:05 -11.6 °C -14.9 °C 1029.3 hPa Calm   3.2 km/h 76% 0 mm
12:10 -11.4 °C -14.8 °C 1029.3 hPa Calm   1.6 km/h 76% 0 mm
12:15 -11.3 °C -14.7 °C 1029 hPa Calm   1.6 km/h 76% 0 mm
12:20 -11.2 °C -14.6 °C 1029 hPa Calm     76% 0 mm
12:25 -11.2 °C -14.6 °C 1029.3 hPa Calm     76% 0 mm
12:30 -11 °C -14.4 °C 1029 hPa Calm     76% 0 mm
12:40 -10.8 °C -14.2 °C 1028.7 hPa NE 1.6 km/h 3.2 km/h 76% 0 mm
12:45 -10.8 °C -14 °C 1028.7 hPa Calm   3.2 km/h 77% 0 mm
12:50 -10.8 °C -14 °C 1028.3 hPa Calm   3.2 km/h 77% 0 mm
12:55 -10.7 °C -13.9 °C 1028.3 hPa Calm   3.2 km/h 77% 0 mm
13:00 -10.6 °C -13.8 °C 1028.3 hPa NE 3.2 km/h 8 km/h 77% 0 mm
13:05 -10.4 °C -13.6 °C 1028.3 hPa NNE 1.6 km/h 8 km/h 78% 0 mm
13:10 -10.3 °C -13.4 °C 1028.3 hPa Calm   6.4 km/h 78% 0 mm
13:15 -10.2 °C -13.3 °C 1028 hPa NNE 1.6 km/h 4.8 km/h 78% 0 mm
13:20 -10.2 °C -13.4 °C 1028 hPa Calm   6.4 km/h 77% 0 mm
13:25 -10.2 °C -13.4 °C 1028 hPa NNE 1.6 km/h 6.4 km/h 77% 0 mm
13:30 -10.1 °C -13.4 °C 1028 hPa Calm   3.2 km/h 77% 0 mm
13:35 -10.1 °C -13.4 °C 1028 hPa Calm   4.8 km/h 77% 0 mm
13:40 -10 °C -13.3 °C 1028 hPa Calm   4.8 km/h 77% 0 mm
13:45 -9.8 °C -13.1 °C 1028 hPa NNE 1.6 km/h 4.8 km/h 77% 0 mm
13:50 -9.8 °C -13.1 °C 1028.3 hPa Calm   4.8 km/h 77% 0 mm
13:55 -9.8 °C -13.1 °C 1028.3 hPa Calm   4.8 km/h 77% 0 mm
14:00 -9.8 °C -13.1 °C 1028 hPa Calm   4.8 km/h 77% 0 mm
14:05 -9.7 °C -13 °C 1028.3 hPa Calm   4.8 km/h 77% 0 mm
14:10 -9.8 °C -13.1 °C 1028.3 hPa Calm   4.8 km/h 77% 0 mm
14:15 -9.7 °C -12.8 °C 1028 hPa Calm   1.6 km/h 78% 0 mm
14:20 -9.7 °C -12.8 °C 1028 hPa Calm   3.2 km/h 78% 0 mm
14:25 -9.7 °C -12.8 °C 1028 hPa Calm   3.2 km/h 78% 0 mm
14:30 -9.7 °C -12.8 °C 1028 hPa NNE 1.6 km/h 6.4 km/h 78% 0 mm
14:40 -9.7 °C -12.6 °C 1028 hPa Calm   6.4 km/h 79% 0 mm
14:45 -9.7 °C -12.6 °C 1028.3 hPa Calm   4.8 km/h 79% 0 mm
14:50 -9.7 °C -12.6 °C 1028.3 hPa Calm   3.2 km/h 79% 0 mm
14:55 -9.7 °C -12.7 °C 1028 hPa Calm   4.8 km/h 79% 0 mm
15:00 -9.8 °C -12.7 °C 1028.3 hPa Calm   4.8 km/h 79% 0 mm
15:05 -9.7 °C -12.7 °C 1028 hPa Calm   4.8 km/h 79% 0 mm
15:10 -9.8 °C -12.7 °C 1028.3 hPa North 1.6 km/h 4.8 km/h 79% 0 mm
15:15 -9.8 °C -12.8 °C 1028.3 hPa Calm   4.8 km/h 79% 0 mm
15:20 -9.9 °C -12.9 °C 1028.3 hPa Calm   4.8 km/h 79% 0 mm
15:25 -9.9 °C -12.9 °C 1028.3 hPa Calm   6.4 km/h 79% 0 mm
15:30 -9.9 °C -12.7 °C 1028.3 hPa Calm   6.4 km/h 80% 0 mm
15:35 -9.9 °C -12.7 °C 1028 hPa Calm   4.8 km/h 80% 0 mm
15:40 -10 °C -12.8 °C 1028 hPa NNE 1.6 km/h 4.8 km/h 80% 0 mm
15:45 -10 °C -12.8 °C 1028 hPa Calm   4.8 km/h 80% 0 mm
15:50 -10 °C -12.8 °C 1028 hPa NNE 1.6 km/h 4.8 km/h 80% 0 mm
15:55 -10 °C -12.8 °C 1028 hPa NNE 1.6 km/h 4.8 km/h 80% 0 mm
16:00 -10 °C -12.8 °C 1028 hPa NNE 1.6 km/h 6.4 km/h 80% 0 mm
16:05 -10 °C -12.8 °C 1027.7 hPa Calm   6.4 km/h 80% 0 mm
16:10 -10.1 °C -12.8 °C 1027.7 hPa Calm   4.8 km/h 80% 0 mm
16:15 -10.1 °C -12.9 °C 1027.7 hPa Calm   4.8 km/h 80% 0 mm
16:20 -10.2 °C -12.8 °C 1027.3 hPa Calm   4.8 km/h 81% 0 mm
16:25 -10.2 °C -12.8 °C 1027.3 hPa Calm   4.8 km/h 81% 0 mm
16:30 -10.2 °C -12.8 °C 1027.3 hPa Calm   3.2 km/h 81% 0 mm
16:35 -10.3 °C -12.9 °C 1027.7 hPa Calm   3.2 km/h 81% 0 mm
16:40 -10.3 °C -12.9 °C 1027.7 hPa Calm   3.2 km/h 81% 0 mm
16:45 -10.4 °C -13 °C 1027.7 hPa Calm   3.2 km/h 81% 0 mm
16:50 -10.5 °C -13.1 °C 1028 hPa Calm   3.2 km/h 81% 0 mm
16:55 -10.6 °C -13.2 °C 1028 hPa Calm   3.2 km/h 81% 0 mm
17:00 -10.7 °C -13.3 °C 1028.3 hPa Calm   3.2 km/h 81% 0 mm
17:05 -10.7 °C -13.3 °C 1028.3 hPa Calm   3.2 km/h 81% 0 mm
17:10 -10.8 °C -13.4 °C 1028.3 hPa Calm   3.2 km/h 81% 0 mm
17:15 -10.8 °C -13.4 °C 1028.7 hPa Calm     81% 0 mm
17:20 -10.9 °C -13.5 °C 1028.7 hPa Calm     81% 0 mm
17:25 -11 °C -13.6 °C 1029 hPa Calm   3.2 km/h 81% 0 mm
17:30 -11.1 °C -13.7 °C 1029 hPa Calm   3.2 km/h 81% 0 mm
17:35 -11.2 °C -13.8 °C 1029 hPa Calm     81% 0 mm
17:40 -11.4 °C -14.2 °C 1029.3 hPa Calm   4.8 km/h 80% 0 mm
17:45 -11.6 °C -14.3 °C 1029.3 hPa Calm   4.8 km/h 80% 0 mm
17:50 -11.7 °C -14.5 °C 1029.3 hPa Calm   3.2 km/h 80% 0 mm
17:55 -11.9 °C -14.6 °C 1029.3 hPa Calm   3.2 km/h 80% 0 mm
18:00 -12 °C -14.7 °C 1029.3 hPa Calm   3.2 km/h 80% 0 mm
18:05 -12.1 °C -14.7 °C 1029 hPa Calm     81% 0 mm
18:10 -12.2 °C -14.8 °C 1029 hPa Calm     81% 0 mm
18:15 -12.2 °C -14.8 °C 1029 hPa Calm     81% 0 mm
18:20 -12.3 °C -14.9 °C 1029 hPa Calm   1.6 km/h 81% 0 mm
18:25 -12.3 °C -14.9 °C 1029 hPa Calm   1.6 km/h 81% 0 mm
18:30 -12.3 °C -14.9 °C 1028.7 hPa Calm   3.2 km/h 81% 0 mm
18:35 -12.3 °C -14.9 °C 1029 hPa Calm   3.2 km/h 81% 0 mm
18:45 -12.3 °C -14.8 °C 1028.7 hPa Calm   3.2 km/h 82% 0 mm
18:50 -12.3 °C -14.8 °C 1028.7 hPa North 1.6 km/h 4.8 km/h 82% 0 mm
18:55 -12.3 °C -14.8 °C 1028.7 hPa North 1.6 km/h 4.8 km/h 82% 0 mm
19:00 -12.3 °C -14.7 °C 1028.7 hPa Calm   4.8 km/h 82% 0 mm
19:05 -12.3 °C -14.7 °C 1028.7 hPa Calm   1.6 km/h 82% 0 mm
19:10 -12.3 °C -14.6 °C 1028.7 hPa Calm   1.6 km/h 83% 0 mm
19:15 -12.3 °C -14.6 °C 1029 hPa Calm   1.6 km/h 83% 0 mm
19:20 -12.3 °C -14.6 °C 1029 hPa Calm   3.2 km/h 83% 0 mm
19:25 -12.2 °C -14.5 °C 1029 hPa Calm   3.2 km/h 83% 0 mm
19:30 -12.2 °C -14.4 °C 1029 hPa Calm   4.8 km/h 83% 0 mm
19:35 -12.2 °C -14.4 °C 1028.7 hPa Calm   4.8 km/h 83% 0 mm
19:45 -12.1 °C -14.3 °C 1028.7 hPa Calm     83% 0 mm
19:50 -12 °C -14.3 °C 1028.7 hPa Calm     83% 0 mm
19:55 -12 °C -14.3 °C 1028.7 hPa Calm     83% 0 mm
20:00 -12 °C -14.4 °C 1028.7 hPa Calm     82% 0 mm
20:05 -12.1 °C -14.3 °C 1028.7 hPa Calm   1.6 km/h 83% 0 mm
20:10 -12.1 °C -14.5 °C 1028.7 hPa Calm   1.6 km/h 82% 0 mm
20:15 -12.1 °C -14.6 °C 1028.3 hPa Calm   1.6 km/h 82% 0 mm
20:20 -12.1 °C -14.6 °C 1028.3 hPa Calm   1.6 km/h 82% 0 mm
20:25 -12.2 °C -14.6 °C 1028.3 hPa Calm     82% 0 mm
20:30 -12.2 °C -14.6 °C 1028 hPa Calm     82% 0 mm
20:35 -12.2 °C -14.6 °C 1028 hPa Calm   1.6 km/h 82% 0 mm
20:45 -12.3 °C -14.7 °C 1027.7 hPa Calm     82% 0 mm
20:50 -12.3 °C -14.7 °C 1027.7 hPa Calm     82% 0 mm
20:55 -12.3 °C -14.7 °C 1027.7 hPa Calm     82% 0 mm
21:00 -12.3 °C -14.7 °C 1027.7 hPa Calm     82% 0 mm
21:05 -12.3 °C -14.7 °C 1027.7 hPa Calm     82% 0 mm
21:10 -12.3 °C -14.7 °C 1027.7 hPa Calm     82% 0 mm
21:15 -12.3 °C -14.7 °C 1027.7 hPa Calm     82% 0 mm
21:20 -12.3 °C -14.6 °C 1027.7 hPa Calm     83% 0 mm
21:25 -12.3 °C -14.6 °C 1027.7 hPa Calm     83% 0 mm
21:30 -12.2 °C -14.7 °C 1027.7 hPa Calm     82% 0 mm
21:35 -12.3 °C -14.7 °C 1027.7 hPa Calm   1.6 km/h 82% 0 mm
21:40 -12.3 °C -14.8 °C 1027.7 hPa Calm   1.6 km/h 82% 0 mm
21:45 -12.5 °C -14.9 °C 1027.7 hPa Calm   1.6 km/h 82% 0 mm
21:50 -12.6 °C -15.1 °C 1027.3 hPa Calm   1.6 km/h 82% 0 mm
21:55 -12.7 °C -15.1 °C 1027.3 hPa Calm   1.6 km/h 82% 0 mm
22:00 -12.8 °C -15.2 °C 1027.7 hPa Calm   3.2 km/h 82% 0 mm
22:05 -12.8 °C -15.3 °C 1027.7 hPa Calm   3.2 km/h 82% 0 mm
22:10 -12.8 °C -15.3 °C 1027.7 hPa Calm     82% 0 mm
22:15 -12.9 °C -15.3 °C 1027.3 hPa Calm   1.6 km/h 82% 0 mm
22:20 -12.9 °C -15.3 °C 1027.3 hPa Calm   1.6 km/h 82% 0 mm
22:25 -12.8 °C -15.1 °C 1027.3 hPa Calm   1.6 km/h 83% 0 mm
22:30 -12.7 °C -15 °C 1027.3 hPa Calm   1.6 km/h 83% 0 mm
22:35 -12.6 °C -14.9 °C 1027 hPa Calm   1.6 km/h 83% 0 mm
22:40 -12.5 °C -14.7 °C 1027 hPa Calm   1.6 km/h 84% 0 mm
22:45 -12.4 °C -14.6 °C 1027 hPa Calm   1.6 km/h 84% 0 mm
22:50 -12.3 °C -14.4 °C 1027 hPa Calm     84% 0 mm
22:55 -12.3 °C -14.6 °C 1027 hPa Calm     83% 0 mm
23:00 -12.3 °C -14.6 °C 1027 hPa Calm     83% 0 mm
23:05 -12.2 °C -14.4 °C 1027 hPa Calm     84% 0 mm
23:10 -12.2 °C -14.3 °C 1027 hPa Calm     84% 0 mm
23:15 -12.1 °C -14.3 °C 1027 hPa Calm     84% 0 mm
23:20 -12.1 °C -14.2 °C 1027 hPa Calm   1.6 km/h 84% 0 mm
23:25 -12 °C -14.2 °C 1026.6 hPa Calm   1.6 km/h 84% 0 mm
23:30 -11.9 °C -14.1 °C 1026.6 hPa Calm     84% 0 mm
23:35 -12 °C -14.3 °C 1026.6 hPa Calm   1.6 km/h 83% 0 mm
23:40 -12.1 °C -14.3 °C 1026.3 hPa Calm   1.6 km/h 83% 0 mm
23:45 -12.1 °C -14.4 °C 1026.6 hPa Calm     83% 0 mm
23:50 -12.2 °C -14.4 °C 1026.6 hPa Calm     83% 0 mm
23:55 -12.2 °C -14.5 °C 1026.6 hPa Calm     83% 0 mm
Westford Weather
Compliments of Weather Underground

 
 
Current Radar Loop:

Copyright © WestfordWeather.net 2007-2014. All rights reserved.